Arden Hills, Minnesota
Current Conditions -  °F | °C
As of 11:45 AM on Wednesday 26 Nov 2014 (Local Time) from KANE Reporting Station
Light Snow Light Snow  
Wind Chill: 19°   Ceiling: 1300
Heat Index: 27°   Visibility: 3mi
Dew Point: 23°   Wind: 7mph
Humidity: 86%   Direction: 10°N
Pressure: 30.17"   Gusts: NA
Location:  45.0848°N, 93.136°W
Report Text: KANE 261745Z 01006KT 3SM -SN BKN013 BKN019 OVC048 M03/M05 A3017
Loading
Personal Weather Stations






























Interactive Weather Map New forecast layout! Learn more

10-Day Weather Forecast

Advertisements
Track Severe Weather on mobile